sensor_id;sensor_type;location;lat;lon;timestamp;P1;durP1;ratioP1;P2;durP2;ratioP2
17818;SDS011;9034;50.284;19.310;2024-03-02T00:00:02;416.10;;;85.32;;
17818;SDS011;9034;50.284;19.310;2024-03-02T00:01:12;1463.18;;;199.10;;
17818;SDS011;9034;50.284;19.310;2024-03-02T00:02:15;597.72;;;97.72;;
17818;SDS011;9034;50.284;19.310;2024-03-02T00:03:19;281.48;;;69.35;;
17818;SDS011;9034;50.284;19.310;2024-03-02T00:04:21;100.80;;;44.33;;
17818;SDS011;9034;50.284;19.310;2024-03-02T00:05:24;107.90;;;53.70;;
17818;SDS011;9034;50.284;19.310;2024-03-02T00:06:26;114.15;;;54.42;;
17818;SDS011;9034;50.284;19.310;2024-03-02T00:07:29;134.98;;;58.90;;
17818;SDS011;9034;50.284;19.310;2024-03-02T00:08:33;118.82;;;47.20;;
17818;SDS011;9034;50.284;19.310;2024-03-02T00:09:36;125.03;;;59.45;;
17818;SDS011;9034;50.284;19.310;2024-03-02T00:10:38;209.13;;;67.70;;
17818;SDS011;9034;50.284;19.310;2024-03-02T00:11:42;118.43;;;58.30;;
17818;SDS011;9034;50.284;19.310;2024-03-02T00:12:46;141.70;;;63.92;;
17818;SDS011;9034;50.284;19.310;2024-03-02T00:13:48;153.90;;;48.60;;
17818;SDS011;9034;50.284;19.310;2024-03-02T00:14:51;116.78;;;52.40;;
17818;SDS011;9034;50.284;19.310;2024-03-02T00:15:55;154.65;;;57.22;;
17818;SDS011;9034;50.284;19.310;2024-03-02T00:16:59;227.75;;;63.72;;
17818;SDS011;9034;50.284;19.310;2024-03-02T00:18:01;476.33;;;86.63;;
17818;SDS011;9034;50.284;19.310;2024-03-02T00:19:03;125.43;;;43.08;;
17818;SDS011;9034;50.284;19.310;2024-03-02T00:20:09;102.05;;;49.63;;
17818;SDS011;9034;50.284;19.310;2024-03-02T00:21:11;87.32;;;48.15;;
17818;SDS011;9034;50.284;19.310;2024-03-02T00:22:16;72.97;;;39.97;;
17818;SDS011;9034;50.284;19.310;2024-03-02T00:23:18;72.82;;;39.50;;
17818;SDS011;9034;50.284;19.310;2024-03-02T00:30:00;52.42;;;30.63;;
17818;SDS011;9034;50.284;19.310;2024-03-02T00:31:04;61.95;;;31.10;;
17818;SDS011;9034;50.284;19.310;2024-03-02T00:32:08;64.00;;;32.20;;
17818;SDS011;9034;50.284;19.310;2024-03-02T00:33:14;72.55;;;38.78;;
17818;SDS011;9034;50.284;19.310;2024-03-02T00:34:16;58.90;;;30.17;;
17818;SDS011;9034;50.284;19.310;2024-03-02T00:35:20;68.55;;;39.88;;
17818;SDS011;9034;50.284;19.310;2024-03-02T00:36:24;69.03;;;39.40;;
17818;SDS011;9034;50.284;19.310;2024-03-02T00:37:28;89.43;;;37.28;;
17818;SDS011;9034;50.284;19.310;2024-03-02T00:38:31;71.38;;;39.35;;
17818;SDS011;9034;50.284;19.310;2024-03-02T00:39:34;79.82;;;41.22;;
17818;SDS011;9034;50.284;19.310;2024-03-02T00:40:37;74.35;;;39.45;;
17818;SDS011;9034;50.284;19.310;2024-03-02T00:41:40;66.40;;;32.55;;
17818;SDS011;9034;50.284;19.310;2024-03-02T00:42:44;78.63;;;41.38;;
17818;SDS011;9034;50.284;19.310;2024-03-02T00:43:59;81.22;;;41.70;;
17818;SDS011;9034;50.284;19.310;2024-03-02T00:45:05;62.13;;;31.15;;
17818;SDS011;9034;50.284;19.310;2024-03-02T00:46:12;80.43;;;42.95;;
17818;SDS011;9034;50.284;19.310;2024-03-02T00:47:15;94.45;;;44.05;;
17818;SDS011;9034;50.284;19.310;2024-03-02T00:48:17;80.13;;;35.53;;
17818;SDS011;9034;50.284;19.310;2024-03-02T00:49:21;89.22;;;43.80;;
17818;SDS011;9034;50.284;19.310;2024-03-02T00:50:25;88.10;;;40.97;;
17818;SDS011;9034;50.284;19.310;2024-03-02T00:51:32;81.85;;;40.45;;
17818;SDS011;9034;50.284;19.310;2024-03-02T00:52:34;79.57;;;38.58;;
17818;SDS011;9034;50.284;19.310;2024-03-02T00:53:37;71.00;;;32.08;;
17818;SDS011;9034;50.284;19.310;2024-03-02T00:54:40;109.70;;;42.40;;
17818;SDS011;9034;50.284;19.310;2024-03-02T00:55:43;70.65;;;37.97;;
17818;SDS011;9034;50.284;19.310;2024-03-02T00:56:48;79.32;;;37.00;;
17818;SDS011;9034;50.284;19.310;2024-03-02T00:57:51;75.72;;;39.05;;
17818;SDS011;9034;50.284;19.310;2024-03-02T00:58:54;84.30;;;40.22;;
17818;SDS011;9034;50.284;19.310;2024-03-02T00:59:57;84.88;;;39.83;;
17818;SDS011;9034;50.284;19.310;2024-03-02T01:00:58;79.78;;;37.10;;
17818;SDS011;9034;50.284;19.310;2024-03-02T01:02:02;68.70;;;35.85;;
17818;SDS011;9034;50.284;19.310;2024-03-02T01:03:05;74.20;;;37.78;;
17818;SDS011;9034;50.284;19.310;2024-03-02T01:04:09;72.95;;;40.53;;
17818;SDS011;9034;50.284;19.310;2024-03-02T01:05:12;83.50;;;40.50;;
17818;SDS011;9034;50.284;19.310;2024-03-02T01:06:14;73.97;;;40.35;;
17818;SDS011;9034;50.284;19.310;2024-03-02T01:07:16;78.68;;;41.25;;
17818;SDS011;9034;50.284;19.310;2024-03-02T01:08:19;80.30;;;40.85;;
17818;SDS011;9034;50.284;19.310;2024-03-02T01:09:21;88.57;;;43.58;;
17818;SDS011;9034;50.284;19.310;2024-03-02T01:10:24;82.57;;;41.78;;
17818;SDS011;9034;50.284;19.310;2024-03-02T01:11:27;86.20;;;43.15;;
17818;SDS011;9034;50.284;19.310;2024-03-02T01:12:30;91.03;;;43.35;;
17818;SDS011;9034;50.284;19.310;2024-03-02T01:13:32;89.88;;;43.00;;
17818;SDS011;9034;50.284;19.310;2024-03-02T01:14:35;84.32;;;43.30;;
17818;SDS011;9034;50.284;19.310;2024-03-02T01:15:37;95.20;;;41.45;;
17818;SDS011;9034;50.284;19.310;2024-03-02T01:16:40;76.65;;;40.75;;
17818;SDS011;9034;50.284;19.310;2024-03-02T01:17:45;80.30;;;39.60;;
17818;SDS011;9034;50.284;19.310;2024-03-02T01:18:47;86.93;;;39.70;;
17818;SDS011;9034;50.284;19.310;2024-03-02T01:19:50;77.78;;;38.67;;
17818;SDS011;9034;50.284;19.310;2024-03-02T01:20:52;79.25;;;38.53;;
17818;SDS011;9034;50.284;19.310;2024-03-02T01:21:57;80.15;;;38.70;;
17818;SDS011;9034;50.284;19.310;2024-03-02T01:22:59;64.13;;;36.40;;
17818;SDS011;9034;50.284;19.310;2024-03-02T01:24:01;80.22;;;38.60;;
17818;SDS011;9034;50.284;19.310;2024-03-02T01:25:05;86.03;;;37.58;;
17818;SDS011;9034;50.284;19.310;2024-03-02T01:26:07;76.53;;;37.38;;
17818;SDS011;9034;50.284;19.310;2024-03-02T01:27:09;84.30;;;39.50;;
17818;SDS011;9034;50.284;19.310;2024-03-02T01:28:13;91.03;;;41.65;;
17818;SDS011;9034;50.284;19.310;2024-03-02T01:29:15;93.38;;;39.83;;
17818;SDS011;9034;50.284;19.310;2024-03-02T01:30:18;80.05;;;37.63;;
17818;SDS011;9034;50.284;19.310;2024-03-02T01:31:20;72.38;;;40.05;;
17818;SDS011;9034;50.284;19.310;2024-03-02T01:32:23;82.40;;;41.05;;
17818;SDS011;9034;50.284;19.310;2024-03-02T01:33:26;78.90;;;39.55;;
17818;SDS011;9034;50.284;19.310;2024-03-02T01:34:29;77.18;;;38.25;;
17818;SDS011;9034;50.284;19.310;2024-03-02T01:35:31;80.68;;;40.13;;
17818;SDS011;9034;50.284;19.310;2024-03-02T01:36:33;82.43;;;38.72;;
17818;SDS011;9034;50.284;19.310;2024-03-02T01:37:37;76.60;;;36.78;;
17818;SDS011;9034;50.284;19.310;2024-03-02T01:38:39;71.32;;;37.63;;
17818;SDS011;9034;50.284;19.310;2024-03-02T01:39:41;58.92;;;35.15;;
17818;SDS011;9034;50.284;19.310;2024-03-02T01:40:44;66.07;;;35.53;;
17818;SDS011;9034;50.284;19.310;2024-03-02T01:41:47;62.85;;;34.72;;
17818;SDS011;9034;50.284;19.310;2024-03-02T01:42:48;70.90;;;38.20;;
17818;SDS011;9034;50.284;19.310;2024-03-02T01:43:51;69.90;;;36.08;;
17818;SDS011;9034;50.284;19.310;2024-03-02T01:44:54;69.93;;;35.33;;
17818;SDS011;9034;50.284;19.310;2024-03-02T01:45:56;65.97;;;35.65;;
17818;SDS011;9034;50.284;19.310;2024-03-02T01:46:59;60.30;;;35.90;;
17818;SDS011;9034;50.284;19.310;2024-03-02T01:48:01;62.20;;;34.25;;
17818;SDS011;9034;50.284;19.310;2024-03-02T01:49:06;62.90;;;33.33;;
17818;SDS011;9034;50.284;19.310;2024-03-02T01:50:08;65.63;;;34.42;;
17818;SDS011;9034;50.284;19.310;2024-03-02T01:51:12;78.95;;;36.05;;
17818;SDS011;9034;50.284;19.310;2024-03-02T01:52:15;68.45;;;35.00;;
17818;SDS011;9034;50.284;19.310;2024-03-02T01:53:18;67.20;;;35.22;;
17818;SDS011;9034;50.284;19.310;2024-03-02T01:54:20;64.93;;;35.00;;
17818;SDS011;9034;50.284;19.310;2024-03-02T01:55:25;65.00;;;35.33;;
17818;SDS011;9034;50.284;19.310;2024-03-02T01:56:27;59.38;;;34.67;;
17818;SDS011;9034;50.284;19.310;2024-03-02T01:57:30;68.30;;;34.45;;
17818;SDS011;9034;50.284;19.310;2024-03-02T01:58:33;74.18;;;35.70;;
17818;SDS011;9034;50.284;19.310;2024-03-02T01:59:36;68.47;;;35.67;;
17818;SDS011;9034;50.284;19.310;2024-03-02T02:00:38;61.00;;;35.25;;
17818;SDS011;9034;50.284;19.310;2024-03-02T02:01:41;66.50;;;34.33;;
17818;SDS011;9034;50.284;19.310;2024-03-02T02:02:43;59.60;;;34.45;;
17818;SDS011;9034;50.284;19.310;2024-03-02T02:03:45;75.82;;;37.08;;
17818;SDS011;9034;50.284;19.310;2024-03-02T02:04:50;71.90;;;35.92;;
17818;SDS011;9034;50.284;19.310;2024-03-02T02:05:52;62.50;;;34.72;;
17818;SDS011;9034;50.284;19.310;2024-03-02T02:06:54;64.85;;;35.53;;
17818;SDS011;9034;50.284;19.310;2024-03-02T02:07:56;60.42;;;34.13;;
17818;SDS011;9034;50.284;19.310;2024-03-02T02:09:00;62.78;;;33.92;;
17818;SDS011;9034;50.284;19.310;2024-03-02T02:10:02;64.93;;;35.17;;
17818;SDS011;9034;50.284;19.310;2024-03-02T02:11:05;63.08;;;35.15;;
17818;SDS011;9034;50.284;19.310;2024-03-02T02:12:08;59.30;;;34.55;;
17818;SDS011;9034;50.284;19.310;2024-03-02T02:13:10;55.80;;;32.85;;
17818;SDS011;9034;50.284;19.310;2024-03-02T02:14:14;71.38;;;35.33;;
17818;SDS011;9034;50.284;19.310;2024-03-02T02:15:23;70.60;;;36.35;;
17818;SDS011;9034;50.284;19.310;2024-03-02T02:16:30;65.30;;;33.45;;
17818;SDS011;9034;50.284;19.310;2024-03-02T02:17:32;65.85;;;32.85;;
17818;SDS011;9034;50.284;19.310;2024-03-02T02:18:35;65.45;;;34.17;;
17818;SDS011;9034;50.284;19.310;2024-03-02T02:19:37;61.38;;;32.92;;
17818;SDS011;9034;50.284;19.310;2024-03-02T02:20:44;65.72;;;32.58;;
17818;SDS011;9034;50.284;19.310;2024-03-02T02:21:47;63.40;;;35.10;;
17818;SDS011;9034;50.284;19.310;2024-03-02T02:22:56;58.53;;;33.65;;
17818;SDS011;9034;50.284;19.310;2024-03-02T02:23:59;61.47;;;34.60;;
17818;SDS011;9034;50.284;19.310;2024-03-02T02:25:04;65.90;;;33.38;;
17818;SDS011;9034;50.284;19.310;2024-03-02T02:26:07;58.08;;;31.65;;
17818;SDS011;9034;50.284;19.310;2024-03-02T02:27:10;62.15;;;33.95;;
17818;SDS011;9034;50.284;19.310;2024-03-02T02:28:14;76.10;;;34.85;;
17818;SDS011;9034;50.284;19.310;2024-03-02T02:29:17;56.85;;;33.45;;
17818;SDS011;9034;50.284;19.310;2024-03-02T02:30:19;64.20;;;33.80;;
17818;SDS011;9034;50.284;19.310;2024-03-02T02:31:23;57.05;;;33.45;;
17818;SDS011;9034;50.284;19.310;2024-03-02T02:32:25;61.40;;;32.53;;
17818;SDS011;9034;50.284;19.310;2024-03-02T02:33:28;68.90;;;33.85;;
17818;SDS011;9034;50.284;19.310;2024-03-02T02:34:30;68.78;;;33.38;;
17818;SDS011;9034;50.284;19.310;2024-03-02T02:35:33;61.88;;;30.10;;
17818;SDS011;9034;50.284;19.310;2024-03-02T02:36:36;77.68;;;31.90;;
17818;SDS011;9034;50.284;19.310;2024-03-02T02:37:41;75.13;;;32.20;;
17818;SDS011;9034;50.284;19.310;2024-03-02T02:38:45;75.65;;;33.97;;
17818;SDS011;9034;50.284;19.310;2024-03-02T02:39:49;82.72;;;33.63;;
17818;SDS011;9034;50.284;19.310;2024-03-02T02:40:51;59.60;;;31.13;;
17818;SDS011;9034;50.284;19.310;2024-03-02T02:41:54;57.78;;;30.73;;
17818;SDS011;9034;50.284;19.310;2024-03-02T02:42:56;55.65;;;30.98;;
17818;SDS011;9034;50.284;19.310;2024-03-02T02:44:00;66.57;;;32.05;;
17818;SDS011;9034;50.284;19.310;2024-03-02T02:45:02;66.10;;;32.65;;
17818;SDS011;9034;50.284;19.310;2024-03-02T02:46:06;56.78;;;30.23;;
17818;SDS011;9034;50.284;19.310;2024-03-02T02:47:08;54.88;;;30.60;;
17818;SDS011;9034;50.284;19.310;2024-03-02T02:48:10;54.60;;;29.70;;
17818;SDS011;9034;50.284;19.310;2024-03-02T02:49:13;61.15;;;30.90;;
17818;SDS011;9034;50.284;19.310;2024-03-02T02:50:14;55.42;;;31.80;;
17818;SDS011;9034;50.284;19.310;2024-03-02T02:51:17;62.05;;;32.42;;
17818;SDS011;9034;50.284;19.310;2024-03-02T02:52:19;59.75;;;31.33;;
17818;SDS011;9034;50.284;19.310;2024-03-02T02:53:24;58.78;;;31.77;;
17818;SDS011;9034;50.284;19.310;2024-03-02T02:54:26;56.08;;;31.65;;
17818;SDS011;9034;50.284;19.310;2024-03-02T02:55:29;58.42;;;32.78;;
17818;SDS011;9034;50.284;19.310;2024-03-02T02:56:30;60.30;;;32.20;;
17818;SDS011;9034;50.284;19.310;2024-03-02T02:57:34;58.45;;;31.40;;
17818;SDS011;9034;50.284;19.310;2024-03-02T02:58:37;54.47;;;31.45;;
17818;SDS011;9034;50.284;19.310;2024-03-02T02:59:39;62.75;;;31.80;;
17818;SDS011;9034;50.284;19.310;2024-03-02T03:00:42;62.88;;;32.92;;
17818;SDS011;9034;50.284;19.310;2024-03-02T03:01:44;55.88;;;31.20;;
17818;SDS011;9034;50.284;19.310;2024-03-02T03:02:48;65.57;;;32.42;;
17818;SDS011;9034;50.284;19.310;2024-03-02T03:03:52;68.35;;;30.42;;
17818;SDS011;9034;50.284;19.310;2024-03-02T03:04:55;57.47;;;32.40;;
17818;SDS011;9034;50.284;19.310;2024-03-02T03:05:58;58.45;;;31.20;;
17818;SDS011;9034;50.284;19.310;2024-03-02T03:07:01;60.10;;;32.72;;
17818;SDS011;9034;50.284;19.310;2024-03-02T03:08:04;59.42;;;29.75;;
17818;SDS011;9034;50.284;19.310;2024-03-02T03:09:08;51.22;;;27.85;;
17818;SDS011;9034;50.284;19.310;2024-03-02T03:10:12;55.28;;;27.95;;
17818;SDS011;9034;50.284;19.310;2024-03-02T03:11:16;63.97;;;27.70;;
17818;SDS011;9034;50.284;19.310;2024-03-02T03:12:18;54.88;;;28.70;;
17818;SDS011;9034;50.284;19.310;2024-03-02T03:13:21;48.13;;;26.95;;
17818;SDS011;9034;50.284;19.310;2024-03-02T03:14:23;50.22;;;27.77;;
17818;SDS011;9034;50.284;19.310;2024-03-02T03:15:26;43.90;;;25.85;;
17818;SDS011;9034;50.284;19.310;2024-03-02T03:16:28;47.45;;;27.48;;
17818;SDS011;9034;50.284;19.310;2024-03-02T03:17:31;50.38;;;27.25;;
17818;SDS011;9034;50.284;19.310;2024-03-02T03:18:33;60.05;;;30.15;;
17818;SDS011;9034;50.284;19.310;2024-03-02T03:19:37;54.28;;;30.52;;
17818;SDS011;9034;50.284;19.310;2024-03-02T03:20:40;58.78;;;30.77;;
17818;SDS011;9034;50.284;19.310;2024-03-02T03:21:43;71.05;;;33.88;;
17818;SDS011;9034;50.284;19.310;2024-03-02T03:22:46;70.38;;;31.70;;
17818;SDS011;9034;50.284;19.310;2024-03-02T03:23:48;60.33;;;32.22;;
17818;SDS011;9034;50.284;19.310;2024-03-02T03:24:52;66.15;;;31.52;;
17818;SDS011;9034;50.284;19.310;2024-03-02T03:25:55;76.53;;;33.72;;
17818;SDS011;9034;50.284;19.310;2024-03-02T03:26:57;69.22;;;33.72;;
17818;SDS011;9034;50.284;19.310;2024-03-02T03:27:59;68.75;;;32.65;;
17818;SDS011;9034;50.284;19.310;2024-03-02T03:29:04;83.90;;;35.13;;
17818;SDS011;9034;50.284;19.310;2024-03-02T03:30:08;64.35;;;31.63;;
17818;SDS011;9034;50.284;19.310;2024-03-02T03:31:10;82.38;;;34.33;;
17818;SDS011;9034;50.284;19.310;2024-03-02T03:32:13;61.28;;;32.55;;
17818;SDS011;9034;50.284;19.310;2024-03-02T03:33:15;51.83;;;30.80;;
17818;SDS011;9034;50.284;19.310;2024-03-02T03:34:19;56.35;;;28.33;;
17818;SDS011;9034;50.284;19.310;2024-03-02T03:35:20;73.03;;;30.92;;
17818;SDS011;9034;50.284;19.310;2024-03-02T03:36:24;71.82;;;32.33;;
17818;SDS011;9034;50.284;19.310;2024-03-02T03:37:26;66.43;;;30.70;;
17818;SDS011;9034;50.284;19.310;2024-03-02T03:38:34;68.90;;;31.67;;
17818;SDS011;9034;50.284;19.310;2024-03-02T03:39:36;65.10;;;30.77;;
17818;SDS011;9034;50.284;19.310;2024-03-02T03:40:41;58.47;;;29.35;;
17818;SDS011;9034;50.284;19.310;2024-03-02T03:41:43;55.95;;;29.23;;
17818;SDS011;9034;50.284;19.310;2024-03-02T03:42:46;67.63;;;32.28;;
17818;SDS011;9034;50.284;19.310;2024-03-02T03:43:48;64.90;;;30.17;;
17818;SDS011;9034;50.284;19.310;2024-03-02T03:44:51;61.65;;;29.35;;
17818;SDS011;9034;50.284;19.310;2024-03-02T03:45:53;62.75;;;29.80;;
17818;SDS011;9034;50.284;19.310;2024-03-02T03:46:56;59.17;;;29.63;;
17818;SDS011;9034;50.284;19.310;2024-03-02T03:47:58;49.45;;;27.77;;
17818;SDS011;9034;50.284;19.310;2024-03-02T03:49:01;52.10;;;29.55;;
17818;SDS011;9034;50.284;19.310;2024-03-02T03:50:05;61.25;;;31.10;;
17818;SDS011;9034;50.284;19.310;2024-03-02T03:51:09;61.00;;;30.05;;
17818;SDS011;9034;50.284;19.310;2024-03-02T03:52:11;57.03;;;29.67;;
17818;SDS011;9034;50.284;19.310;2024-03-02T03:53:14;60.95;;;29.52;;
17818;SDS011;9034;50.284;19.310;2024-03-02T03:54:16;53.92;;;28.92;;
17818;SDS011;9034;50.284;19.310;2024-03-02T03:55:19;52.97;;;28.50;;
17818;SDS011;9034;50.284;19.310;2024-03-02T03:56:23;58.72;;;28.92;;
17818;SDS011;9034;50.284;19.310;2024-03-02T03:57:25;51.67;;;27.02;;
17818;SDS011;9034;50.284;19.310;2024-03-02T03:58:28;58.67;;;27.95;;
17818;SDS011;9034;50.284;19.310;2024-03-02T03:59:30;50.55;;;27.00;;
17818;SDS011;9034;50.284;19.310;2024-03-02T04:00:33;64.00;;;28.13;;
17818;SDS011;9034;50.284;19.310;2024-03-02T04:01:36;56.25;;;27.35;;
17818;SDS011;9034;50.284;19.310;2024-03-02T04:02:38;54.35;;;26.38;;
17818;SDS011;9034;50.284;19.310;2024-03-02T04:03:40;57.63;;;28.85;;
17818;SDS011;9034;50.284;19.310;2024-03-02T04:04:43;65.57;;;31.45;;
17818;SDS011;9034;50.284;19.310;2024-03-02T04:05:45;56.30;;;29.42;;
17818;SDS011;9034;50.284;19.310;2024-03-02T04:06:48;54.42;;;29.05;;
17818;SDS011;9034;50.284;19.310;2024-03-02T04:07:50;63.65;;;31.08;;
17818;SDS011;9034;50.284;19.310;2024-03-02T04:08:53;72.05;;;32.63;;
17818;SDS011;9034;50.284;19.310;2024-03-02T04:09:55;75.35;;;33.40;;
17818;SDS011;9034;50.284;19.310;2024-03-02T04:10:58;61.17;;;30.27;;
17818;SDS011;9034;50.284;19.310;2024-03-02T04:12:01;59.25;;;29.50;;
17818;SDS011;9034;50.284;19.310;2024-03-02T04:13:04;72.07;;;29.98;;
17818;SDS011;9034;50.284;19.310;2024-03-02T04:14:06;57.10;;;29.00;;
17818;SDS011;9034;50.284;19.310;2024-03-02T04:15:09;66.60;;;29.83;;
17818;SDS011;9034;50.284;19.310;2024-03-02T04:16:11;58.35;;;29.08;;
17818;SDS011;9034;50.284;19.310;2024-03-02T04:17:13;52.20;;;27.77;;
17818;SDS011;9034;50.284;19.310;2024-03-02T04:18:16;53.03;;;28.42;;
17818;SDS011;9034;50.284;19.310;2024-03-02T04:19:18;59.40;;;27.75;;
17818;SDS011;9034;50.284;19.310;2024-03-02T04:20:21;52.90;;;29.17;;
17818;SDS011;9034;50.284;19.310;2024-03-02T04:21:23;57.35;;;29.58;;
17818;SDS011;9034;50.284;19.310;2024-03-02T04:22:26;53.95;;;29.23;;
17818;SDS011;9034;50.284;19.310;2024-03-02T04:23:29;60.65;;;30.10;;
17818;SDS011;9034;50.284;19.310;2024-03-02T04:24:32;54.15;;;29.00;;
17818;SDS011;9034;50.284;19.310;2024-03-02T04:25:34;50.20;;;28.90;;
17818;SDS011;9034;50.284;19.310;2024-03-02T04:26:37;53.03;;;28.83;;
17818;SDS011;9034;50.284;19.310;2024-03-02T04:27:40;50.20;;;30.05;;
17818;SDS011;9034;50.284;19.310;2024-03-02T04:28:43;47.22;;;28.50;;
17818;SDS011;9034;50.284;19.310;2024-03-02T04:29:46;50.75;;;29.92;;
17818;SDS011;9034;50.284;19.310;2024-03-02T04:30:48;47.50;;;28.45;;
17818;SDS011;9034;50.284;19.310;2024-03-02T04:31:51;51.28;;;29.42;;
17818;SDS011;9034;50.284;19.310;2024-03-02T04:32:53;49.75;;;30.17;;
17818;SDS011;9034;50.284;19.310;2024-03-02T04:33:56;50.70;;;28.30;;
17818;SDS011;9034;50.284;19.310;2024-03-02T04:34:58;51.10;;;29.38;;
17818;SDS011;9034;50.284;19.310;2024-03-02T04:36:01;53.30;;;29.45;;
17818;SDS011;9034;50.284;19.310;2024-03-02T04:37:03;47.45;;;28.55;;
17818;SDS011;9034;50.284;19.310;2024-03-02T04:38:07;45.28;;;26.67;;
17818;SDS011;9034;50.284;19.310;2024-03-02T04:39:08;47.03;;;25.77;;
17818;SDS011;9034;50.284;19.310;2024-03-02T04:40:12;50.35;;;27.08;;
17818;SDS011;9034;50.284;19.310;2024-03-02T04:41:14;40.33;;;26.38;;
17818;SDS011;9034;50.284;19.310;2024-03-02T04:42:18;49.75;;;27.48;;
17818;SDS011;9034;50.284;19.310;2024-03-02T04:43:22;42.47;;;25.55;;
17818;SDS011;9034;50.284;19.310;2024-03-02T04:44:25;43.65;;;27.08;;
17818;SDS011;9034;50.284;19.310;2024-03-02T04:45:27;45.70;;;25.48;;
17818;SDS011;9034;50.284;19.310;2024-03-02T04:46:31;44.08;;;25.83;;
17818;SDS011;9034;50.284;19.310;2024-03-02T04:47:33;40.85;;;25.35;;
17818;SDS011;9034;50.284;19.310;2024-03-02T04:48:36;43.13;;;25.63;;
17818;SDS011;9034;50.284;19.310;2024-03-02T04:49:38;49.28;;;28.33;;
17818;SDS011;9034;50.284;19.310;2024-03-02T04:50:41;46.40;;;26.23;;
17818;SDS011;9034;50.284;19.310;2024-03-02T04:51:43;43.60;;;26.58;;
17818;SDS011;9034;50.284;19.310;2024-03-02T04:52:46;44.78;;;28.33;;
17818;SDS011;9034;50.284;19.310;2024-03-02T04:53:48;42.80;;;26.70;;
17818;SDS011;9034;50.284;19.310;2024-03-02T04:54:51;42.10;;;27.48;;
17818;SDS011;9034;50.284;19.310;2024-03-02T04:56:08;43.50;;;26.95;;
17818;SDS011;9034;50.284;19.310;2024-03-02T04:57:40;43.70;;;27.13;;
17818;SDS011;9034;50.284;19.310;2024-03-02T04:58:44;41.33;;;26.17;;
17818;SDS011;9034;50.284;19.310;2024-03-02T04:59:46;41.50;;;27.83;;
17818;SDS011;9034;50.284;19.310;2024-03-02T05:00:48;48.55;;;26.95;;
17818;SDS011;9034;50.284;19.310;2024-03-02T05:01:52;39.28;;;27.00;;
17818;SDS011;9034;50.284;19.310;2024-03-02T05:02:54;50.28;;;27.88;;
17818;SDS011;9034;50.284;19.310;2024-03-02T05:03:57;44.63;;;27.75;;
17818;SDS011;9034;50.284;19.310;2024-03-02T05:04:59;42.95;;;28.13;;
17818;SDS011;9034;50.284;19.310;2024-03-02T05:06:02;45.13;;;27.10;;
17818;SDS011;9034;50.284;19.310;2024-03-02T05:07:04;42.70;;;27.25;;
17818;SDS011;9034;50.284;19.310;2024-03-02T05:08:07;48.00;;;27.58;;
17818;SDS011;9034;50.284;19.310;2024-03-02T05:09:09;42.60;;;26.85;;
17818;SDS011;9034;50.284;19.310;2024-03-02T05:10:13;45.40;;;27.85;;
17818;SDS011;9034;50.284;19.310;2024-03-02T05:11:16;47.15;;;28.73;;
17818;SDS011;9034;50.284;19.310;2024-03-02T05:12:40;49.05;;;27.70;;
17818;SDS011;9034;50.284;19.310;2024-03-02T05:13:59;42.97;;;27.38;;
17818;SDS011;9034;50.284;19.310;2024-03-02T05:15:02;45.45;;;28.92;;
17818;SDS011;9034;50.284;19.310;2024-03-02T05:16:05;41.63;;;27.73;;
17818;SDS011;9034;50.284;19.310;2024-03-02T05:17:07;41.90;;;28.10;;
17818;SDS011;9034;50.284;19.310;2024-03-02T05:18:10;42.50;;;27.23;;
17818;SDS011;9034;50.284;19.310;2024-03-02T05:19:12;42.10;;;28.33;;
17818;SDS011;9034;50.284;19.310;2024-03-02T05:20:15;46.40;;;28.52;;
17818;SDS011;9034;50.284;19.310;2024-03-02T05:21:18;43.40;;;27.25;;
17818;SDS011;9034;50.284;19.310;2024-03-02T05:22:21;46.20;;;28.27;;
17818;SDS011;9034;50.284;19.310;2024-03-02T05:23:23;52.72;;;28.85;;
17818;SDS011;9034;50.284;19.310;2024-03-02T05:24:26;48.53;;;28.52;;
17818;SDS011;9034;50.284;19.310;2024-03-02T05:25:29;42.40;;;27.63;;
17818;SDS011;9034;50.284;19.310;2024-03-02T05:26:33;49.40;;;29.23;;
17818;SDS011;9034;50.284;19.310;2024-03-02T05:27:35;55.03;;;33.47;;
17818;SDS011;9034;50.284;19.310;2024-03-02T05:28:38;59.25;;;34.42;;
17818;SDS011;9034;50.284;19.310;2024-03-02T05:29:42;50.33;;;32.45;;
17818;SDS011;9034;50.284;19.310;2024-03-02T05:30:45;55.90;;;32.50;;
17818;SDS011;9034;50.284;19.310;2024-03-02T05:31:47;55.60;;;37.05;;
17818;SDS011;9034;50.284;19.310;2024-03-02T05:32:51;45.97;;;29.52;;
17818;SDS011;9034;50.284;19.310;2024-03-02T05:33:52;46.72;;;31.08;;
17818;SDS011;9034;50.284;19.310;2024-03-02T05:34:58;56.17;;;33.20;;
17818;SDS011;9034;50.284;19.310;2024-03-02T05:36:01;60.55;;;36.25;;
17818;SDS011;9034;50.284;19.310;2024-03-02T05:37:04;56.38;;;35.10;;
17818;SDS011;9034;50.284;19.310;2024-03-02T05:38:06;53.95;;;33.20;;
17818;SDS011;9034;50.284;19.310;2024-03-02T05:39:08;64.10;;;33.70;;
17818;SDS011;9034;50.284;19.310;2024-03-02T05:40:12;54.65;;;32.42;;
17818;SDS011;9034;50.284;19.310;2024-03-02T05:41:14;47.13;;;30.33;;
17818;SDS011;9034;50.284;19.310;2024-03-02T05:42:16;45.00;;;28.42;;
17818;SDS011;9034;50.284;19.310;2024-03-02T05:43:20;40.08;;;27.40;;
17818;SDS011;9034;50.284;19.310;2024-03-02T05:44:22;44.33;;;28.85;;
17818;SDS011;9034;50.284;19.310;2024-03-02T05:45:26;42.38;;;28.55;;
17818;SDS011;9034;50.284;19.310;2024-03-02T05:46:28;44.65;;;28.75;;
17818;SDS011;9034;50.284;19.310;2024-03-02T05:47:31;43.75;;;27.98;;
17818;SDS011;9034;50.284;19.310;2024-03-02T05:48:34;41.38;;;28.10;;
17818;SDS011;9034;50.284;19.310;2024-03-02T05:49:37;45.08;;;27.40;;
17818;SDS011;9034;50.284;19.310;2024-03-02T05:50:40;45.65;;;28.15;;
17818;SDS011;9034;50.284;19.310;2024-03-02T05:51:43;43.67;;;27.85;;
17818;SDS011;9034;50.284;19.310;2024-03-02T05:52:45;43.53;;;27.70;;
17818;SDS011;9034;50.284;19.310;2024-03-02T05:53:48;46.40;;;27.05;;
17818;SDS011;9034;50.284;19.310;2024-03-02T05:54:50;45.38;;;28.35;;
17818;SDS011;9034;50.284;19.310;2024-03-02T05:55:53;45.58;;;29.02;;
17818;SDS011;9034;50.284;19.310;2024-03-02T05:56:57;47.17;;;27.85;;
17818;SDS011;9034;50.284;19.310;2024-03-02T05:58:18;44.88;;;27.60;;
17818;SDS011;9034;50.284;19.310;2024-03-02T05:59:29;43.63;;;27.77;;
17818;SDS011;9034;50.284;19.310;2024-03-02T06:00:33;44.47;;;26.92;;
17818;SDS011;9034;50.284;19.310;2024-03-02T06:01:35;47.88;;;29.90;;
17818;SDS011;9034;50.284;19.310;2024-03-02T06:02:39;48.30;;;29.75;;
17818;SDS011;9034;50.284;19.310;2024-03-02T06:03:41;49.88;;;31.80;;
17818;SDS011;9034;50.284;19.310;2024-03-02T06:04:44;45.80;;;28.85;;
17818;SDS011;9034;50.284;19.310;2024-03-02T06:05:46;48.63;;;29.27;;
17818;SDS011;9034;50.284;19.310;2024-03-02T06:06:50;47.75;;;29.23;;
17818;SDS011;9034;50.284;19.310;2024-03-02T06:07:53;43.45;;;28.88;;
17818;SDS011;9034;50.284;19.310;2024-03-02T06:08:54;44.50;;;28.38;;
17818;SDS011;9034;50.284;19.310;2024-03-02T06:09:58;47.45;;;28.48;;
17818;SDS011;9034;50.284;19.310;2024-03-02T06:11:00;43.17;;;28.10;;
17818;SDS011;9034;50.284;19.310;2024-03-02T06:12:03;50.63;;;29.20;;
17818;SDS011;9034;50.284;19.310;2024-03-02T06:13:05;43.25;;;27.52;;
17818;SDS011;9034;50.284;19.310;2024-03-02T06:14:08;43.22;;;27.25;;
17818;SDS011;9034;50.284;19.310;2024-03-02T06:15:10;45.88;;;27.13;;